MCK weather

Mc Cook Ben Nelson Regional Airport
Mc Cook, Nebraska, United States

Public forecast

Using degrees Fahrenheit for public forecast. Weather courtesy of forecast.io.

METAR (pilot weather report)

Retrieved 2019/05/19 20:53 UTC (57 minutes ago):

KMCK 192053Z AUTO 34011G19KT 10SM CLR 17/02 A2996 RMK AO2 SLP143 T01670017 58004

TAF (pilot weather forecast)

Retrieved 2019/05/19 18:30 UTC (3 hours ago):

TAF KMCK 191728Z 1918/2018 32012G21KT P6SM SCT035 FM200200 06010KT P6SM BKN120 FM200700 08012KT P6SM BKN100 FM201000 09012KT P6SM OVC020 FM201300 09013KT P6SM -SHRA OVC010